Time;durP1;ratioP1;P1;durP2;ratioP2;P2;SDS_P1;SDS_P2;PMS_P1;PMS_P2;Temp;Humidity;BMP_temperature;BMP_pressure;BME280_temperature;BME280_humidity;BME280_pressure;Samples;Min_cycle;Max_cycle;Signal;HPM_P1;HPM_P2
2023/03/26 00:09:47;;;;;;;7.17;1.83;;;8.80;99.90;;;;;;20906096;28;20041;-78
2023/03/26 00:19:48;;;;;;;9.10;1.50;;;8.70;99.90;;;;;;20898258;28;20025;-78
2023/03/26 00:29:49;;;;;;;6.77;1.77;;;8.70;99.90;;;;;;20896737;28;20041;-79
2023/03/26 00:39:49;;;;;;;3.83;1.37;;;8.70;99.90;;;;;;20909166;28;20290;-77
2023/03/26 00:49:50;;;;;;;6.37;1.43;;;8.60;99.90;;;;;;20909113;28;20029;-79
2023/03/26 00:59:51;;;;;;;5.33;1.47;;;8.50;99.90;;;;;;20909169;28;20033;-78
2023/03/26 01:09:54;;;;;;;6.63;1.57;;;8.60;99.90;;;;;;20877202;28;20403;-78
2023/03/26 01:20:04;;;;;;;12.20;2.33;;;8.60;99.90;;;;;;20862928;28;20037;-78
2023/03/26 01:30:20;;;;;;;6.47;1.80;;;8.50;99.90;;;;;;20883646;28;20037;-78
2023/03/26 01:40:37;;;;;;;4.22;1.55;;;8.40;99.90;;;;;;20921522;28;20094;-77
2023/03/26 01:50:38;;;;;;;7.63;2.00;;;7.90;99.90;;;;;;20903636;28;20443;-78
2023/03/26 02:00:53;;;;;;;10.33;1.63;;;7.60;99.90;;;;;;20875873;28;20038;-78
2023/03/26 02:10:57;;;;;;;5.70;1.58;;;7.30;99.90;;;;;;20908871;28;20037;-78
2023/03/26 02:20:58;;;;;;;6.32;1.30;;;7.30;99.90;;;;;;20911759;28;20037;-79
2023/03/26 02:31:00;;;;;;;8.70;1.33;;;7.40;99.90;;;;;;20917761;28;20572;-78
2023/03/26 02:41:02;;;;;;;12.85;1.65;;;7.00;99.90;;;;;;20892966;28;20104;-78
2023/03/26 02:51:19;;;;;;;7.43;1.13;;;7.00;99.90;;;;;;20913748;28;20060;-79
2023/03/26 03:01:41;;;;;;;7.63;2.05;;;6.90;99.90;;;;;;20913876;28;20064;-78
2023/03/26 03:11:43;;;;;;;11.68;1.95;;;6.90;99.90;;;;;;20898509;28;20511;-79
2023/03/26 03:21:44;;;;;;;5.68;1.38;;;7.00;99.90;;;;;;20887442;28;20115;-78
2023/03/26 03:31:45;;;;;;;8.15;1.33;;;6.70;99.90;;;;;;20902340;28;20096;-78
2023/03/26 03:41:59;;;;;;;8.80;1.83;;;6.70;99.90;;;;;;20910537;28;20548;-79
2023/03/26 03:52:01;;;;;;;11.65;2.10;;;6.80;99.90;;;;;;20900886;28;20025;-78
2023/03/26 04:02:09;;;;;;;8.82;1.50;;;6.90;99.90;;;;;;20889348;28;20052;-78
2023/03/26 04:12:20;;;;;;;5.13;1.33;;;6.90;99.90;;;;;;20857911;28;20503;-78
2023/03/26 04:22:35;;;;;;;15.30;1.85;;;6.60;99.90;;;;;;20900987;28;20025;-78
2023/03/26 04:32:39;;;;;;;6.20;1.52;;;6.70;99.90;;;;;;20889868;28;20060;-78
2023/03/26 04:42:40;;;;;;;14.10;1.65;;;6.70;99.90;;;;;;20879904;28;20071;-78
2023/03/26 04:53:01;;;;;;;11.73;2.27;;;6.60;99.90;;;;;;20826154;28;20032;-78
2023/03/26 05:03:21;;;;;;;17.05;2.17;;;6.50;99.90;;;;;;20905601;28;20049;-78
2023/03/26 05:13:23;;;;;;;7.70;2.20;;;6.50;99.90;;;;;;20907119;28;20040;-78
2023/03/26 05:23:27;;;;;;;8.63;2.38;;;6.50;99.90;;;;;;20877021;28;20494;-77
2023/03/26 05:33:41;;;;;;;15.80;2.60;;;6.50;99.90;;;;;;20868731;28;20029;-78
2023/03/26 05:43:46;;;;;;;10.13;2.10;;;6.50;99.90;;;;;;20881654;28;20035;-79
2023/03/26 05:53:54;;;;;;;10.43;2.90;;;6.60;99.90;;;;;;20889252;28;20060;-78
2023/03/26 06:04:30;;;;;;;10.15;2.70;;;6.50;99.90;;;;;;20804758;28;20052;-78
2023/03/26 06:15:00;;;;;;;12.73;2.88;;;6.50;99.90;;;;;;20870358;28;20056;-79
2023/03/26 06:25:15;;;;;;;8.95;2.83;;;6.50;99.90;;;;;;20896925;28;20392;-77
2023/03/26 06:35:31;;;;;;;13.07;3.30;;;6.50;99.90;;;;;;20903361;28;20036;-79
2023/03/26 06:45:32;;;;;;;12.93;3.90;;;6.60;99.90;;;;;;20918377;28;20044;-76
2023/03/26 06:56:06;;;;;;;11.30;4.22;;;6.50;99.90;;;;;;20890973;28;20514;-76
2023/03/26 07:06:23;;;;;;;10.02;4.13;;;6.50;99.90;;;;;;20888252;28;20033;-79
2023/03/26 07:16:42;;;;;;;7.18;3.15;;;6.60;99.90;;;;;;20892392;28;20045;-79
2023/03/26 07:27:20;;;;;;;6.47;3.10;;;6.70;99.90;;;;;;20877216;28;20112;-79
2023/03/26 07:37:46;;;;;;;9.68;2.53;;;6.80;99.90;;;;;;20885682;28;20085;-80
2023/03/26 07:48:03;;;;;;;7.05;2.65;;;6.90;99.90;;;;;;20906400;28;20514;-79
2023/03/26 07:58:36;;;;;;;7.32;3.08;;;7.00;99.90;;;;;;20888639;28;20029;-78
2023/03/26 08:09:26;;;;;;;5.30;2.80;;;6.90;99.90;;;;;;20872632;28;20033;-78
2023/03/26 08:20:33;;;;;;;11.90;3.35;;;7.00;99.90;;;;;;20875014;28;20377;-79
2023/03/26 08:30:34;;;;;;;7.43;3.35;;;7.40;99.90;;;;;;20863596;28;20051;-78
2023/03/26 08:40:53;;;;;;;7.25;3.90;;;7.20;99.90;;;;;;20890055;28;20033;-79
2023/03/26 08:51:16;;;;;;;9.73;2.45;;;7.10;99.90;;;;;;20928099;28;20029;-79
2023/03/26 09:01:44;;;;;;;3.47;1.33;;;7.70;99.90;;;;;;20931015;28;20444;-78
2023/03/26 09:12:04;;;;;;;3.08;1.08;;;8.80;99.90;;;;;;20926692;28;20063;-79
2023/03/26 09:22:34;;;;;;;4.32;1.35;;;10.00;99.90;;;;;;20926180;28;20052;-78
2023/03/26 09:32:46;;;;;;;4.10;0.95;;;10.20;99.90;;;;;;20928783;28;20036;-79
2023/03/26 09:42:53;;;;;;;4.40;1.13;;;10.00;99.90;;;;;;20941840;28;20029;-79
2023/03/26 09:52:53;;;;;;;9.48;1.20;;;10.20;99.90;;;;;;20935418;28;20036;-78
2023/03/26 10:03:13;;;;;;;5.40;1.03;;;11.30;99.90;;;;;;20922733;28;20044;-76
2023/03/26 10:13:27;;;;;;;3.15;0.70;;;11.80;99.90;;;;;;20918094;28;20051;-79
2023/03/26 10:23:56;;;;;;;3.65;0.80;;;12.90;99.90;;;;;;20919265;28;20032;-78
2023/03/26 10:34:20;;;;;;;4.15;0.90;;;12.50;99.90;;;;;;20858056;28;20045;-79
2023/03/26 10:45:03;;;;;;;6.05;0.88;;;11.90;99.90;;;;;;20864559;28;20022;-79
2023/03/26 10:55:17;;;;;;;3.00;0.60;;;11.90;99.90;;;;;;20917153;28;20033;-79
2023/03/26 11:05:45;;;;;;;3.33;0.80;;;11.80;99.90;;;;;;20864384;28;20039;-80
2023/03/26 11:16:01;;;;;;;4.97;0.75;;;11.90;99.90;;;;;;20904308;28;20063;-80
2023/03/26 11:26:07;;;;;;;1.63;0.77;;;12.60;99.90;;;;;;20928235;28;20453;-79
2023/03/26 11:36:14;;;;;;;1.00;0.50;;;13.80;99.90;;;;;;20909422;28;20083;-79
2023/03/26 11:46:18;;;;;;;4.28;0.50;;;15.20;99.90;;;;;;20844557;28;20025;-79
2023/03/26 11:56:32;;;;;;;2.50;0.40;;;15.40;99.90;;;;;;20864569;28;20039;-79
2023/03/26 12:06:33;;;;;;;1.85;0.50;;;15.10;99.90;;;;;;20871356;28;20123;-78
2023/03/26 12:16:35;;;;;;;2.93;0.43;;;16.20;99.90;;;;;;20848303;28;20054;-78
2023/03/26 12:26:47;;;;;;;1.20;0.60;;;15.40;99.90;;;;;;20895086;28;20032;-78
2023/03/26 12:36:54;;;;;;;3.97;0.88;;;14.50;99.90;;;;;;20906018;28;20040;-78
2023/03/26 12:47:12;;;;;;;1.75;0.47;;;14.90;99.90;;;;;;20856519;28;20029;-78
2023/03/26 12:57:19;;;;;;;1.63;0.47;;;15.10;99.90;;;;;;20909277;28;20025;-78
2023/03/26 13:07:29;;;;;;;3.72;0.70;;;14.00;99.90;;;;;;20910660;28;20100;-77
2023/03/26 13:18:06;;;;;;;2.03;0.57;;;14.20;99.90;;;;;;20925315;28;20037;-80
2023/03/26 13:28:18;;;;;;;3.35;0.60;;;14.70;99.90;;;;;;20852501;28;20033;-78
2023/03/26 13:39:03;;;;;;;2.40;0.55;;;14.10;99.90;;;;;;20851062;28;20035;-78
2023/03/26 13:49:12;;;;;;;9.15;0.70;;;13.70;99.90;;;;;;20841242;28;20052;-78
2023/03/26 13:59:30;;;;;;;3.20;0.60;;;12.80;99.90;;;;;;20910924;28;20025;-77
2023/03/26 14:09:53;;;;;;;4.57;0.88;;;12.30;99.90;;;;;;20897975;28;20488;-77
2023/03/26 14:20:27;;;;;;;4.75;1.27;;;11.40;99.90;;;;;;20905883;28;20072;-80
2023/03/26 14:30:47;;;;;;;0.63;0.30;;;8.10;99.90;;;;;;20899476;28;20079;-79
2023/03/26 14:40:57;;;;;;;1.27;0.50;;;8.00;99.90;;;;;;20839258;28;20040;-77
2023/03/26 14:51:07;;;;;;;0.60;0.38;;;8.10;99.90;;;;;;20908138;28;20047;-77
2023/03/26 15:01:20;;;;;;;1.10;0.50;;;8.40;99.90;;;;;;20895257;28;20032;-79
2023/03/26 15:11:30;;;;;;;0.68;0.52;;;8.40;99.90;;;;;;20925964;28;20039;-79
2023/03/26 15:22:02;;;;;;;0.88;0.60;;;8.40;99.90;;;;;;20927668;28;20075;-79
2023/03/26 15:32:06;;;;;;;0.20;0.20;;;8.10;99.90;;;;;;20843549;28;20029;-79
2023/03/26 15:42:12;;;;;;;0.40;0.40;;;7.50;99.90;;;;;;20844026;28;20034;-79
2023/03/26 15:52:47;;;;;;;0.70;0.40;;;7.20;99.90;;;;;;20865830;28;20033;-82
2023/03/26 16:03:26;;;;;;;1.08;0.47;;;6.90;99.90;;;;;;20894989;28;20091;-79
2023/03/26 16:13:33;;;;;;;1.17;0.50;;;6.30;99.90;;;;;;20916801;28;20056;-80
2023/03/26 16:23:53;;;;;;;0.88;0.60;;;6.20;99.90;;;;;;20888240;28;20057;-78
2023/03/26 16:33:54;;;;;;;0.70;0.40;;;6.30;99.90;;;;;;20867454;28;20396;-78
2023/03/26 16:44:03;;;;;;;;;;;6.50;99.90;;;;;;20870784;28;20029;-79
2023/03/26 16:54:49;;;;;;;1.00;0.43;;;6.60;99.90;;;;;;20891007;28;20486;-79
2023/03/26 17:04:57;;;;;;;0.95;0.40;;;6.50;99.90;;;;;;20873771;28;20049;-78
2023/03/26 17:15:25;;;;;;;1.02;0.60;;;6.50;99.90;;;;;;20888816;28;20021;-78
2023/03/26 17:25:39;;;;;;;3.40;2.42;;;6.30;99.90;;;;;;20886255;28;20079;-78
2023/03/26 17:35:47;;;;;;;1.23;0.73;;;6.20;99.90;;;;;;20890269;28;20031;-78
2023/03/26 17:45:51;;;;;;;9.63;0.93;;;6.20;99.90;;;;;;20885670;28;20029;-78
2023/03/26 17:55:52;;;;;;;1.45;0.77;;;6.10;99.90;;;;;;20865807;28;20512;-79
2023/03/26 18:05:57;;;;;;;1.40;0.77;;;6.20;99.90;;;;;;20840705;28;20041;-76
2023/03/26 18:16:01;;;;;;;2.22;0.60;;;6.20;99.90;;;;;;20856753;28;20078;-78
2023/03/26 18:26:22;;;;;;;2.47;1.02;;;6.10;99.90;;;;;;20921708;28;20032;-77
2023/03/26 18:36:26;;;;;;;9.73;2.40;;;6.20;99.90;;;;;;20908577;28;20120;-78
2023/03/26 18:46:27;;;;;;;5.93;2.03;;;6.10;99.90;;;;;;20880668;28;20033;-78
2023/03/26 18:56:28;;;;;;;;;;;6.20;99.90;;;;;;20890200;28;20028;-77
2023/03/26 19:06:34;;;;;;;2.17;1.27;;;6.30;99.90;;;;;;20921697;28;20011;-77
2023/03/26 19:16:42;;;;;;;0.88;0.70;;;6.20;99.90;;;;;;20902330;28;20061;-77
2023/03/26 19:26:44;;;;;;;1.15;0.80;;;6.10;99.90;;;;;;20841180;28;20044;-78
2023/03/26 19:36:59;;;;;;;0.98;0.77;;;6.10;99.90;;;;;;20855931;28;20029;-78
2023/03/26 19:47:40;;;;;;;0.77;0.60;;;6.10;99.90;;;;;;20858380;28;20033;-78
2023/03/26 19:57:41;;;;;;;2.00;0.80;;;5.90;99.90;;;;;;20859925;28;20033;-78
2023/03/26 20:07:43;;;;;;;4.65;1.52;;;6.00;99.90;;;;;;20881466;28;20464;-78
2023/03/26 20:17:45;;;;;;;3.70;1.85;;;6.00;99.90;;;;;;20880614;28;20391;-79
2023/03/26 20:27:46;;;;;;;6.13;3.00;;;6.00;99.90;;;;;;20870032;28;20025;-78
2023/03/26 20:37:47;;;;;;;;;;;6.00;99.90;;;;;;20879814;28;20064;-77
2023/03/26 20:47:49;;;;;;;2.72;1.50;;;5.90;99.90;;;;;;20872244;28;19921;-78
2023/03/26 20:57:50;;;;;;;3.38;2.00;;;5.80;99.90;;;;;;20870555;28;20040;-78
2023/03/26 21:07:51;;;;;;;;;;;5.70;99.90;;;;;;20870407;28;20460;-77
2023/03/26 21:17:53;;;;;;;2.90;0.80;;;5.50;99.90;;;;;;20860196;28;19919;-77
2023/03/26 21:28:07;;;;;;;6.60;0.95;;;5.30;99.90;;;;;;20864082;28;20052;-78
2023/03/26 21:38:09;;;;;;;3.47;0.65;;;5.20;99.90;;;;;;20872603;28;20625;-77
2023/03/26 21:48:11;;;;;;;2.55;0.95;;;5.30;99.90;;;;;;20913988;28;20033;-78
2023/03/26 21:58:26;;;;;;;2.10;0.98;;;5.30;99.90;;;;;;20844313;28;20444;-76
2023/03/26 22:08:31;;;;;;;1.55;0.90;;;5.40;99.90;;;;;;20836276;28;20041;-77
2023/03/26 22:18:33;;;;;;;1.50;0.70;;;5.50;99.90;;;;;;20835710;28;20128;-77
2023/03/26 22:28:35;;;;;;;3.08;0.88;;;5.50;99.90;;;;;;20832793;28;20056;-78
2023/03/26 22:38:36;;;;;;;2.38;0.80;;;5.30;99.90;;;;;;20835848;28;20048;-78
2023/03/26 22:48:39;;;;;;;1.73;0.68;;;5.20;99.90;;;;;;20864890;28;20041;-78
2023/03/26 22:58:41;;;;;;;1.17;0.77;;;5.10;99.90;;;;;;20831111;28;20120;-78
2023/03/26 23:08:42;;;;;;;1.55;0.70;;;5.10;99.90;;;;;;20831178;28;20087;-78
2023/03/26 23:18:43;;;;;;;0.82;0.57;;;5.20;99.90;;;;;;20873424;28;20029;-77
2023/03/26 23:28:44;;;;;;;1.67;1.10;;;5.30;99.90;;;;;;20916099;28;20123;-78
2023/03/26 23:38:46;;;;;;;1.40;0.90;;;5.10;99.90;;;;;;20919129;28;20423;-78
2023/03/26 23:48:49;;;;;;;2.08;0.57;;;5.10;99.90;;;;;;20917507;28;20025;-79
2023/03/26 23:58:50;;;;;;;2.20;0.57;;;5.10;99.90;;;;;;20921503;28;20021;-78
